sensor_id;sensor_type;location;lat;lon;timestamp;temperature;humidity
29713;DHT22;16623;53.632;10.016;2024-01-30T00:00:14;5.50;99.90
29713;DHT22;16623;53.632;10.016;2024-01-30T00:02:40;5.40;99.90
29713;DHT22;16623;53.632;10.016;2024-01-30T00:05:05;5.40;99.90
29713;DHT22;16623;53.632;10.016;2024-01-30T00:07:31;5.40;99.90
29713;DHT22;16623;53.632;10.016;2024-01-30T00:09:56;5.30;99.90
29713;DHT22;16623;53.632;10.016;2024-01-30T00:12:22;5.30;99.90
29713;DHT22;16623;53.632;10.016;2024-01-30T00:14:47;5.40;99.90
29713;DHT22;16623;53.632;10.016;2024-01-30T00:17:13;5.30;99.90
29713;DHT22;16623;53.632;10.016;2024-01-30T00:19:39;5.40;99.90
29713;DHT22;16623;53.632;10.016;2024-01-30T00:22:05;5.30;99.90
29713;DHT22;16623;53.632;10.016;2024-01-30T00:24:31;5.30;99.90
29713;DHT22;16623;53.632;10.016;2024-01-30T00:26:56;5.30;99.90
29713;DHT22;16623;53.632;10.016;2024-01-30T00:29:22;5.30;99.90
29713;DHT22;16623;53.632;10.016;2024-01-30T00:31:48;5.30;99.90
29713;DHT22;16623;53.632;10.016;2024-01-30T00:34:13;5.40;99.90
29713;DHT22;16623;53.632;10.016;2024-01-30T00:36:39;5.30;99.90
29713;DHT22;16623;53.632;10.016;2024-01-30T00:39:04;5.30;99.90
29713;DHT22;16623;53.632;10.016;2024-01-30T00:41:32;5.40;99.90
29713;DHT22;16623;53.632;10.016;2024-01-30T00:43:57;5.30;99.90
29713;DHT22;16623;53.632;10.016;2024-01-30T00:46:23;5.30;99.90
29713;DHT22;16623;53.632;10.016;2024-01-30T00:48:49;5.30;99.90
29713;DHT22;16623;53.632;10.016;2024-01-30T00:51:14;5.30;99.90
29713;DHT22;16623;53.632;10.016;2024-01-30T00:53:40;5.20;99.90
29713;DHT22;16623;53.632;10.016;2024-01-30T00:56:07;5.20;99.90
29713;DHT22;16623;53.632;10.016;2024-01-30T00:58:33;5.20;99.90
29713;DHT22;16623;53.632;10.016;2024-01-30T01:00:58;5.20;99.90
29713;DHT22;16623;53.632;10.016;2024-01-30T01:03:24;5.20;99.90
29713;DHT22;16623;53.632;10.016;2024-01-30T01:05:49;5.00;99.90
29713;DHT22;16623;53.632;10.016;2024-01-30T01:08:15;5.00;99.90
29713;DHT22;16623;53.632;10.016;2024-01-30T01:10:40;5.00;99.90
29713;DHT22;16623;53.632;10.016;2024-01-30T01:13:06;5.00;99.90
29713;DHT22;16623;53.632;10.016;2024-01-30T01:15:31;5.00;99.90
29713;DHT22;16623;53.632;10.016;2024-01-30T01:17:57;4.90;99.90
29713;DHT22;16623;53.632;10.016;2024-01-30T01:20:22;4.90;99.90
29713;DHT22;16623;53.632;10.016;2024-01-30T01:22:48;5.10;99.90
29713;DHT22;16623;53.632;10.016;2024-01-30T01:25:13;5.10;99.90
29713;DHT22;16623;53.632;10.016;2024-01-30T01:27:39;5.20;99.90
29713;DHT22;16623;53.632;10.016;2024-01-30T01:30:11;5.20;99.90
29713;DHT22;16623;53.632;10.016;2024-01-30T01:32:37;5.10;99.90
29713;DHT22;16623;53.632;10.016;2024-01-30T01:35:04;6.30;99.90
29713;DHT22;16623;53.632;10.016;2024-01-30T01:37:31;5.20;99.90
29713;DHT22;16623;53.632;10.016;2024-01-30T01:39:56;5.20;99.90
29713;DHT22;16623;53.632;10.016;2024-01-30T01:42:22;5.20;99.90
29713;DHT22;16623;53.632;10.016;2024-01-30T01:44:47;5.20;99.90
29713;DHT22;16623;53.632;10.016;2024-01-30T01:47:13;5.20;99.90
29713;DHT22;16623;53.632;10.016;2024-01-30T01:49:39;5.20;99.90
29713;DHT22;16623;53.632;10.016;2024-01-30T01:52:05;5.10;99.90
29713;DHT22;16623;53.632;10.016;2024-01-30T01:54:31;5.20;99.90
29713;DHT22;16623;53.632;10.016;2024-01-30T01:56:57;5.20;99.90
29713;DHT22;16623;53.632;10.016;2024-01-30T01:59:23;5.20;99.90
29713;DHT22;16623;53.632;10.016;2024-01-30T02:01:50;5.20;99.90
29713;DHT22;16623;53.632;10.016;2024-01-30T02:04:17;5.20;99.90
29713;DHT22;16623;53.632;10.016;2024-01-30T02:06:43;5.20;99.90
29713;DHT22;16623;53.632;10.016;2024-01-30T02:09:09;5.20;99.90
29713;DHT22;16623;53.632;10.016;2024-01-30T02:11:35;5.30;99.90
29713;DHT22;16623;53.632;10.016;2024-01-30T02:14:06;5.20;99.90
29713;DHT22;16623;53.632;10.016;2024-01-30T02:16:32;5.30;99.90
29713;DHT22;16623;53.632;10.016;2024-01-30T02:18:57;5.30;99.90
29713;DHT22;16623;53.632;10.016;2024-01-30T02:21:23;5.30;99.90
29713;DHT22;16623;53.632;10.016;2024-01-30T02:23:49;5.40;99.90
29713;DHT22;16623;53.632;10.016;2024-01-30T02:26:16;5.40;99.90
29713;DHT22;16623;53.632;10.016;2024-01-30T02:28:41;5.30;99.90
29713;DHT22;16623;53.632;10.016;2024-01-30T02:31:07;5.40;99.90
29713;DHT22;16623;53.632;10.016;2024-01-30T02:33:32;5.40;99.90
29713;DHT22;16623;53.632;10.016;2024-01-30T02:35:58;5.40;99.90
29713;DHT22;16623;53.632;10.016;2024-01-30T02:38:24;5.40;99.90
29713;DHT22;16623;53.632;10.016;2024-01-30T02:40:50;5.40;99.90
29713;DHT22;16623;53.632;10.016;2024-01-30T02:43:16;5.40;99.90
29713;DHT22;16623;53.632;10.016;2024-01-30T02:45:42;5.40;99.90
29713;DHT22;16623;53.632;10.016;2024-01-30T02:48:07;5.40;99.90
29713;DHT22;16623;53.632;10.016;2024-01-30T02:50:33;5.40;99.90
29713;DHT22;16623;53.632;10.016;2024-01-30T02:52:58;5.30;99.90
29713;DHT22;16623;53.632;10.016;2024-01-30T02:55:24;5.30;99.90
29713;DHT22;16623;53.632;10.016;2024-01-30T02:57:49;5.20;99.90
29713;DHT22;16623;53.632;10.016;2024-01-30T03:00:15;5.10;99.90
29713;DHT22;16623;53.632;10.016;2024-01-30T03:02:41;5.10;99.90
29713;DHT22;16623;53.632;10.016;2024-01-30T03:05:08;5.10;99.90
29713;DHT22;16623;53.632;10.016;2024-01-30T03:07:34;5.10;99.90
29713;DHT22;16623;53.632;10.016;2024-01-30T03:09:59;5.00;99.90
29713;DHT22;16623;53.632;10.016;2024-01-30T03:12:25;5.00;99.90
29713;DHT22;16623;53.632;10.016;2024-01-30T03:14:50;5.00;99.90
29713;DHT22;16623;53.632;10.016;2024-01-30T03:17:16;4.90;99.90
29713;DHT22;16623;53.632;10.016;2024-01-30T03:19:41;5.00;99.90
29713;DHT22;16623;53.632;10.016;2024-01-30T03:22:07;5.00;99.90
29713;DHT22;16623;53.632;10.016;2024-01-30T03:24:33;5.00;99.90
29713;DHT22;16623;53.632;10.016;2024-01-30T03:26:59;5.00;99.90
29713;DHT22;16623;53.632;10.016;2024-01-30T03:29:24;5.00;99.90
29713;DHT22;16623;53.632;10.016;2024-01-30T03:31:50;4.90;99.90
29713;DHT22;16623;53.632;10.016;2024-01-30T03:34:16;4.90;99.90
29713;DHT22;16623;53.632;10.016;2024-01-30T03:36:41;4.80;99.90
29713;DHT22;16623;53.632;10.016;2024-01-30T03:39:07;4.80;99.90
29713;DHT22;16623;53.632;10.016;2024-01-30T03:41:32;4.70;99.90
29713;DHT22;16623;53.632;10.016;2024-01-30T03:43:58;4.60;99.90
29713;DHT22;16623;53.632;10.016;2024-01-30T03:46:23;4.60;99.90
29713;DHT22;16623;53.632;10.016;2024-01-30T03:48:49;4.40;99.90
29713;DHT22;16623;53.632;10.016;2024-01-30T03:51:15;4.40;99.90
29713;DHT22;16623;53.632;10.016;2024-01-30T03:53:44;4.30;99.90
29713;DHT22;16623;53.632;10.016;2024-01-30T03:56:11;4.30;99.90
29713;DHT22;16623;53.632;10.016;2024-01-30T03:58:38;4.20;99.90
29713;DHT22;16623;53.632;10.016;2024-01-30T04:01:04;4.30;99.90
29713;DHT22;16623;53.632;10.016;2024-01-30T04:03:29;4.30;99.90
29713;DHT22;16623;53.632;10.016;2024-01-30T04:05:55;4.30;99.90
29713;DHT22;16623;53.632;10.016;2024-01-30T04:08:21;4.30;99.90
29713;DHT22;16623;53.632;10.016;2024-01-30T04:10:47;4.40;99.90
29713;DHT22;16623;53.632;10.016;2024-01-30T04:13:13;4.40;99.90
29713;DHT22;16623;53.632;10.016;2024-01-30T04:15:40;4.30;99.90
29713;DHT22;16623;53.632;10.016;2024-01-30T04:18:06;4.40;99.90
29713;DHT22;16623;53.632;10.016;2024-01-30T04:20:32;6.30;99.90
29713;DHT22;16623;53.632;10.016;2024-01-30T04:22:57;4.40;99.90
29713;DHT22;16623;53.632;10.016;2024-01-30T04:25:23;4.40;99.90
29713;DHT22;16623;53.632;10.016;2024-01-30T04:27:49;4.40;99.90
29713;DHT22;16623;53.632;10.016;2024-01-30T04:30:15;4.40;99.90
29713;DHT22;16623;53.632;10.016;2024-01-30T04:32:40;4.40;99.90
29713;DHT22;16623;53.632;10.016;2024-01-30T04:35:06;5.60;99.90
29713;DHT22;16623;53.632;10.016;2024-01-30T04:37:32;4.40;99.90
29713;DHT22;16623;53.632;10.016;2024-01-30T04:39:57;4.40;99.90
29713;DHT22;16623;53.632;10.016;2024-01-30T04:42:23;4.50;99.90
29713;DHT22;16623;53.632;10.016;2024-01-30T04:44:50;4.50;99.90
29713;DHT22;16623;53.632;10.016;2024-01-30T04:47:15;4.50;99.90
29713;DHT22;16623;53.632;10.016;2024-01-30T04:49:41;4.60;99.90
29713;DHT22;16623;53.632;10.016;2024-01-30T04:52:08;4.60;99.90
29713;DHT22;16623;53.632;10.016;2024-01-30T04:54:34;4.50;99.90
29713;DHT22;16623;53.632;10.016;2024-01-30T04:57:00;4.60;99.90
29713;DHT22;16623;53.632;10.016;2024-01-30T04:59:25;4.60;99.90
29713;DHT22;16623;53.632;10.016;2024-01-30T05:01:51;4.50;99.90
29713;DHT22;16623;53.632;10.016;2024-01-30T05:04:16;4.60;99.90
29713;DHT22;16623;53.632;10.016;2024-01-30T05:06:42;4.60;99.90
29713;DHT22;16623;53.632;10.016;2024-01-30T05:09:08;4.60;99.90
29713;DHT22;16623;53.632;10.016;2024-01-30T05:11:41;4.60;99.90
29713;DHT22;16623;53.632;10.016;2024-01-30T05:14:07;4.60;99.90
29713;DHT22;16623;53.632;10.016;2024-01-30T05:16:32;4.60;99.90
29713;DHT22;16623;53.632;10.016;2024-01-30T05:18:58;4.70;99.90
29713;DHT22;16623;53.632;10.016;2024-01-30T05:21:24;4.70;99.90
29713;DHT22;16623;53.632;10.016;2024-01-30T05:23:50;4.80;99.90
29713;DHT22;16623;53.632;10.016;2024-01-30T05:26:15;4.80;99.90
29713;DHT22;16623;53.632;10.016;2024-01-30T05:28:41;4.80;99.90
29713;DHT22;16623;53.632;10.016;2024-01-30T05:31:06;4.90;99.90
29713;DHT22;16623;53.632;10.016;2024-01-30T05:33:32;4.90;99.90
29713;DHT22;16623;53.632;10.016;2024-01-30T05:35:58;5.00;99.90
29713;DHT22;16623;53.632;10.016;2024-01-30T05:38:24;4.90;99.90
29713;DHT22;16623;53.632;10.016;2024-01-30T05:40:50;5.00;99.90
29713;DHT22;16623;53.632;10.016;2024-01-30T05:43:15;5.00;99.90
29713;DHT22;16623;53.632;10.016;2024-01-30T05:45:41;5.00;99.90
29713;DHT22;16623;53.632;10.016;2024-01-30T05:48:07;5.10;99.90
29713;DHT22;16623;53.632;10.016;2024-01-30T05:50:32;5.00;99.90
29713;DHT22;16623;53.632;10.016;2024-01-30T05:52:58;5.10;99.90
29713;DHT22;16623;53.632;10.016;2024-01-30T05:55:24;5.00;99.90
29713;DHT22;16623;53.632;10.016;2024-01-30T05:57:49;5.10;99.90
29713;DHT22;16623;53.632;10.016;2024-01-30T06:00:16;5.10;99.90
29713;DHT22;16623;53.632;10.016;2024-01-30T06:02:42;5.00;99.90
29713;DHT22;16623;53.632;10.016;2024-01-30T06:05:07;5.10;99.90
29713;DHT22;16623;53.632;10.016;2024-01-30T06:07:33;5.10;99.90
29713;DHT22;16623;53.632;10.016;2024-01-30T06:09:59;5.10;99.90
29713;DHT22;16623;53.632;10.016;2024-01-30T06:12:27;5.10;99.90
29713;DHT22;16623;53.632;10.016;2024-01-30T06:14:53;5.20;99.90
29713;DHT22;16623;53.632;10.016;2024-01-30T06:17:22;5.20;99.90
29713;DHT22;16623;53.632;10.016;2024-01-30T06:19:48;5.20;99.90
29713;DHT22;16623;53.632;10.016;2024-01-30T06:22:13;5.10;99.90
29713;DHT22;16623;53.632;10.016;2024-01-30T06:24:39;5.20;99.90
29713;DHT22;16623;53.632;10.016;2024-01-30T06:27:04;5.10;99.90
29713;DHT22;16623;53.632;10.016;2024-01-30T06:29:30;5.10;99.90
29713;DHT22;16623;53.632;10.016;2024-01-30T06:31:55;5.20;99.90
29713;DHT22;16623;53.632;10.016;2024-01-30T06:34:21;5.20;99.90
29713;DHT22;16623;53.632;10.016;2024-01-30T06:39:13;5.20;99.90
29713;DHT22;16623;53.632;10.016;2024-01-30T06:41:38;5.20;99.90
29713;DHT22;16623;53.632;10.016;2024-01-30T06:44:04;5.30;99.90
29713;DHT22;16623;53.632;10.016;2024-01-30T06:46:31;5.30;99.90
29713;DHT22;16623;53.632;10.016;2024-01-30T06:48:57;5.30;99.90
29713;DHT22;16623;53.632;10.016;2024-01-30T06:51:23;5.30;99.90
29713;DHT22;16623;53.632;10.016;2024-01-30T06:53:49;6.90;99.90
29713;DHT22;16623;53.632;10.016;2024-01-30T06:56:14;5.30;99.90
29713;DHT22;16623;53.632;10.016;2024-01-30T06:58:40;5.40;99.90
29713;DHT22;16623;53.632;10.016;2024-01-30T07:01:06;5.20;99.90
29713;DHT22;16623;53.632;10.016;2024-01-30T07:03:31;5.20;99.90
29713;DHT22;16623;53.632;10.016;2024-01-30T07:05:57;5.30;99.90
29713;DHT22;16623;53.632;10.016;2024-01-30T07:08:22;5.30;99.90
29713;DHT22;16623;53.632;10.016;2024-01-30T07:10:48;5.20;99.90
29713;DHT22;16623;53.632;10.016;2024-01-30T07:13:13;5.20;99.90
29713;DHT22;16623;53.632;10.016;2024-01-30T07:15:42;5.20;99.90
29713;DHT22;16623;53.632;10.016;2024-01-30T07:18:08;5.20;99.90
29713;DHT22;16623;53.632;10.016;2024-01-30T07:20:35;5.30;99.90
29713;DHT22;16623;53.632;10.016;2024-01-30T07:23:00;5.20;99.90
29713;DHT22;16623;53.632;10.016;2024-01-30T07:25:26;5.20;99.90
29713;DHT22;16623;53.632;10.016;2024-01-30T07:27:58;5.30;99.90
29713;DHT22;16623;53.632;10.016;2024-01-30T07:30:23;5.20;99.90
29713;DHT22;16623;53.632;10.016;2024-01-30T07:32:49;5.30;99.90
29713;DHT22;16623;53.632;10.016;2024-01-30T07:35:15;5.20;99.90
29713;DHT22;16623;53.632;10.016;2024-01-30T07:37:40;5.30;99.90
29713;DHT22;16623;53.632;10.016;2024-01-30T07:40:06;5.30;99.90
29713;DHT22;16623;53.632;10.016;2024-01-30T07:42:32;5.30;99.90
29713;DHT22;16623;53.632;10.016;2024-01-30T07:44:58;5.40;99.90
29713;DHT22;16623;53.632;10.016;2024-01-30T07:47:24;5.40;99.90
29713;DHT22;16623;53.632;10.016;2024-01-30T07:49:50;5.50;99.90
29713;DHT22;16623;53.632;10.016;2024-01-30T07:54:42;5.50;99.90
29713;DHT22;16623;53.632;10.016;2024-01-30T07:57:07;5.60;99.90
29713;DHT22;16623;53.632;10.016;2024-01-30T07:59:34;5.70;99.90
29713;DHT22;16623;53.632;10.016;2024-01-30T08:02:00;5.70;99.90
29713;DHT22;16623;53.632;10.016;2024-01-30T08:04:25;5.70;99.90
29713;DHT22;16623;53.632;10.016;2024-01-30T08:06:51;5.70;99.90
29713;DHT22;16623;53.632;10.016;2024-01-30T08:09:16;5.80;99.90
29713;DHT22;16623;53.632;10.016;2024-01-30T08:11:42;5.90;99.90
29713;DHT22;16623;53.632;10.016;2024-01-30T08:14:07;5.90;99.90
29713;DHT22;16623;53.632;10.016;2024-01-30T08:16:33;5.90;99.90
29713;DHT22;16623;53.632;10.016;2024-01-30T08:18:58;6.00;99.90
29713;DHT22;16623;53.632;10.016;2024-01-30T08:21:24;6.10;99.90
29713;DHT22;16623;53.632;10.016;2024-01-30T08:23:49;6.10;99.90
29713;DHT22;16623;53.632;10.016;2024-01-30T08:26:15;6.10;99.90
29713;DHT22;16623;53.632;10.016;2024-01-30T08:28:41;6.20;99.90
29713;DHT22;16623;53.632;10.016;2024-01-30T08:31:06;6.20;99.90
29713;DHT22;16623;53.632;10.016;2024-01-30T08:33:32;6.30;99.90
29713;DHT22;16623;53.632;10.016;2024-01-30T08:35:57;6.30;99.90
29713;DHT22;16623;53.632;10.016;2024-01-30T08:38:23;6.30;99.90
29713;DHT22;16623;53.632;10.016;2024-01-30T08:40:49;6.40;99.90
29713;DHT22;16623;53.632;10.016;2024-01-30T08:43:14;6.40;99.90
29713;DHT22;16623;53.632;10.016;2024-01-30T08:45:40;6.40;99.90
29713;DHT22;16623;53.632;10.016;2024-01-30T08:48:06;6.50;99.90
29713;DHT22;16623;53.632;10.016;2024-01-30T08:50:34;6.60;99.90
29713;DHT22;16623;53.632;10.016;2024-01-30T08:52:59;6.60;99.90
29713;DHT22;16623;53.632;10.016;2024-01-30T08:55:25;6.70;99.90
29713;DHT22;16623;53.632;10.016;2024-01-30T08:57:51;6.60;99.90
29713;DHT22;16623;53.632;10.016;2024-01-30T09:00:17;6.70;99.90
29713;DHT22;16623;53.632;10.016;2024-01-30T09:02:46;6.70;99.90
29713;DHT22;16623;53.632;10.016;2024-01-30T09:05:11;6.70;99.90
29713;DHT22;16623;53.632;10.016;2024-01-30T09:07:39;6.60;99.90
29713;DHT22;16623;53.632;10.016;2024-01-30T09:10:05;6.70;99.90
29713;DHT22;16623;53.632;10.016;2024-01-30T09:12:31;6.80;99.90
29713;DHT22;16623;53.632;10.016;2024-01-30T09:14:58;6.90;99.90
29713;DHT22;16623;53.632;10.016;2024-01-30T09:17:23;6.90;99.90
29713;DHT22;16623;53.632;10.016;2024-01-30T09:22:15;7.00;99.90
29713;DHT22;16623;53.632;10.016;2024-01-30T09:24:43;7.00;99.90
29713;DHT22;16623;53.632;10.016;2024-01-30T09:27:08;7.00;99.90
29713;DHT22;16623;53.632;10.016;2024-01-30T09:29:34;7.00;99.90
29713;DHT22;16623;53.632;10.016;2024-01-30T09:32:01;7.30;99.90
29713;DHT22;16623;53.632;10.016;2024-01-30T09:36:53;7.30;99.90
29713;DHT22;16623;53.632;10.016;2024-01-30T09:39:18;7.30;99.90
29713;DHT22;16623;53.632;10.016;2024-01-30T09:41:51;7.40;99.90
29713;DHT22;16623;53.632;10.016;2024-01-30T09:44:20;7.40;99.90
29713;DHT22;16623;53.632;10.016;2024-01-30T09:46:47;7.50;99.90
29713;DHT22;16623;53.632;10.016;2024-01-30T09:49:13;7.50;99.90
29713;DHT22;16623;53.632;10.016;2024-01-30T09:51:40;7.50;99.90
29713;DHT22;16623;53.632;10.016;2024-01-30T09:54:08;7.60;99.90
29713;DHT22;16623;53.632;10.016;2024-01-30T09:56:33;7.60;99.90
29713;DHT22;16623;53.632;10.016;2024-01-30T09:58:59;7.70;99.90
29713;DHT22;16623;53.632;10.016;2024-01-30T10:01:25;7.70;99.90
29713;DHT22;16623;53.632;10.016;2024-01-30T10:03:51;7.70;99.90
29713;DHT22;16623;53.632;10.016;2024-01-30T10:06:21;7.80;99.90
29713;DHT22;16623;53.632;10.016;2024-01-30T10:08:47;7.90;99.90
29713;DHT22;16623;53.632;10.016;2024-01-30T10:11:13;7.80;99.90
29713;DHT22;16623;53.632;10.016;2024-01-30T10:13:39;7.90;99.90
29713;DHT22;16623;53.632;10.016;2024-01-30T10:16:05;8.00;99.90
29713;DHT22;16623;53.632;10.016;2024-01-30T10:18:32;8.00;99.90
29713;DHT22;16623;53.632;10.016;2024-01-30T10:20:58;8.10;99.90
29713;DHT22;16623;53.632;10.016;2024-01-30T10:23:24;8.10;99.90
29713;DHT22;16623;53.632;10.016;2024-01-30T10:25:51;8.20;99.90
29713;DHT22;16623;53.632;10.016;2024-01-30T10:28:17;8.20;99.90
29713;DHT22;16623;53.632;10.016;2024-01-30T10:30:45;8.20;99.90
29713;DHT22;16623;53.632;10.016;2024-01-30T10:33:12;8.20;99.90
29713;DHT22;16623;53.632;10.016;2024-01-30T10:35:38;8.30;99.90
29713;DHT22;16623;53.632;10.016;2024-01-30T10:38:06;8.40;99.90
29713;DHT22;16623;53.632;10.016;2024-01-30T10:40:33;8.40;99.90
29713;DHT22;16623;53.632;10.016;2024-01-30T10:43:01;8.50;99.90
29713;DHT22;16623;53.632;10.016;2024-01-30T10:45:28;8.60;99.90
29713;DHT22;16623;53.632;10.016;2024-01-30T10:47:55;8.60;99.90
29713;DHT22;16623;53.632;10.016;2024-01-30T10:50:27;8.60;99.90
29713;DHT22;16623;53.632;10.016;2024-01-30T10:52:54;8.70;99.90
29713;DHT22;16623;53.632;10.016;2024-01-30T10:55:22;8.80;99.90
29713;DHT22;16623;53.632;10.016;2024-01-30T10:57:49;8.80;99.90
29713;DHT22;16623;53.632;10.016;2024-01-30T11:00:16;8.90;99.90
29713;DHT22;16623;53.632;10.016;2024-01-30T11:02:44;8.90;99.90
29713;DHT22;16623;53.632;10.016;2024-01-30T11:05:11;8.80;99.90
29713;DHT22;16623;53.632;10.016;2024-01-30T11:07:39;9.00;99.90
29713;DHT22;16623;53.632;10.016;2024-01-30T11:10:06;9.00;99.90
29713;DHT22;16623;53.632;10.016;2024-01-30T11:12:38;9.00;99.90
29713;DHT22;16623;53.632;10.016;2024-01-30T11:15:12;9.10;99.90
29713;DHT22;16623;53.632;10.016;2024-01-30T11:17:53;9.10;99.90
29713;DHT22;16623;53.632;10.016;2024-01-30T11:20:27;9.20;99.90
29713;DHT22;16623;53.632;10.016;2024-01-30T11:22:56;9.20;99.90
29713;DHT22;16623;53.632;10.016;2024-01-30T11:25:22;9.20;99.90
29713;DHT22;16623;53.632;10.016;2024-01-30T11:27:53;9.30;99.90
29713;DHT22;16623;53.632;10.016;2024-01-30T11:30:26;9.30;99.90
29713;DHT22;16623;53.632;10.016;2024-01-30T11:33:07;9.30;99.90
29713;DHT22;16623;53.632;10.016;2024-01-30T11:35:35;9.30;99.90
29713;DHT22;16623;53.632;10.016;2024-01-30T11:38:05;9.40;99.90
29713;DHT22;16623;53.632;10.016;2024-01-30T11:40:32;9.30;99.90
29713;DHT22;16623;53.632;10.016;2024-01-30T11:42:59;9.30;99.90
29713;DHT22;16623;53.632;10.016;2024-01-30T11:45:29;9.30;99.90
29713;DHT22;16623;53.632;10.016;2024-01-30T11:47:55;9.30;99.90
29713;DHT22;16623;53.632;10.016;2024-01-30T11:50:21;9.20;99.90
29713;DHT22;16623;53.632;10.016;2024-01-30T11:52:47;9.20;99.90
29713;DHT22;16623;53.632;10.016;2024-01-30T11:55:14;9.20;99.90
29713;DHT22;16623;53.632;10.016;2024-01-30T11:57:40;9.20;99.90
29713;DHT22;16623;53.632;10.016;2024-01-30T12:00:06;9.20;99.90
29713;DHT22;16623;53.632;10.016;2024-01-30T12:02:39;9.20;99.90
29713;DHT22;16623;53.632;10.016;2024-01-30T12:05:06;9.20;99.90
29713;DHT22;16623;53.632;10.016;2024-01-30T12:07:32;9.20;99.90
29713;DHT22;16623;53.632;10.016;2024-01-30T12:09:58;9.20;99.90
29713;DHT22;16623;53.632;10.016;2024-01-30T12:12:28;9.30;99.90
29713;DHT22;16623;53.632;10.016;2024-01-30T12:14:54;9.30;99.90
29713;DHT22;16623;53.632;10.016;2024-01-30T12:20:13;9.20;99.90
29713;DHT22;16623;53.632;10.016;2024-01-30T12:22:41;9.20;99.90
29713;DHT22;16623;53.632;10.016;2024-01-30T12:25:11;9.30;99.90
29713;DHT22;16623;53.632;10.016;2024-01-30T12:27:37;9.30;99.90
29713;DHT22;16623;53.632;10.016;2024-01-30T12:30:10;9.30;99.90
29713;DHT22;16623;53.632;10.016;2024-01-30T12:32:43;9.40;99.90
29713;DHT22;16623;53.632;10.016;2024-01-30T12:35:16;9.40;99.90
29713;DHT22;16623;53.632;10.016;2024-01-30T12:37:43;9.40;99.90
29713;DHT22;16623;53.632;10.016;2024-01-30T12:40:10;9.50;99.90
29713;DHT22;16623;53.632;10.016;2024-01-30T12:42:37;9.50;99.90
29713;DHT22;16623;53.632;10.016;2024-01-30T12:45:03;9.50;99.90
29713;DHT22;16623;53.632;10.016;2024-01-30T12:47:29;9.60;99.90
29713;DHT22;16623;53.632;10.016;2024-01-30T12:49:55;9.70;99.90
29713;DHT22;16623;53.632;10.016;2024-01-30T12:52:21;9.70;99.90
29713;DHT22;16623;53.632;10.016;2024-01-30T12:54:50;9.70;99.90
29713;DHT22;16623;53.632;10.016;2024-01-30T12:57:17;9.80;99.90
29713;DHT22;16623;53.632;10.016;2024-01-30T12:59:43;9.80;99.90
29713;DHT22;16623;53.632;10.016;2024-01-30T13:02:10;9.90;99.90
29713;DHT22;16623;53.632;10.016;2024-01-30T13:04:35;9.90;99.90
29713;DHT22;16623;53.632;10.016;2024-01-30T13:07:02;9.90;99.90
29713;DHT22;16623;53.632;10.016;2024-01-30T13:09:29;9.90;99.90
29713;DHT22;16623;53.632;10.016;2024-01-30T13:11:54;9.90;99.90
29713;DHT22;16623;53.632;10.016;2024-01-30T13:14:20;9.90;99.90
29713;DHT22;16623;53.632;10.016;2024-01-30T13:16:45;9.90;99.90
29713;DHT22;16623;53.632;10.016;2024-01-30T13:19:11;9.90;99.90
29713;DHT22;16623;53.632;10.016;2024-01-30T13:21:37;9.90;99.90
29713;DHT22;16623;53.632;10.016;2024-01-30T13:24:03;9.90;99.90
29713;DHT22;16623;53.632;10.016;2024-01-30T13:26:29;9.90;99.90
29713;DHT22;16623;53.632;10.016;2024-01-30T13:28:56;9.90;99.90
29713;DHT22;16623;53.632;10.016;2024-01-30T13:31:22;9.90;99.90
29713;DHT22;16623;53.632;10.016;2024-01-30T13:33:47;9.90;99.90
29713;DHT22;16623;53.632;10.016;2024-01-30T13:36:14;9.80;99.90
29713;DHT22;16623;53.632;10.016;2024-01-30T13:38:40;9.80;99.90
29713;DHT22;16623;53.632;10.016;2024-01-30T13:41:05;9.80;99.90
29713;DHT22;16623;53.632;10.016;2024-01-30T13:43:31;9.70;99.90
29713;DHT22;16623;53.632;10.016;2024-01-30T13:45:57;9.80;99.90
29713;DHT22;16623;53.632;10.016;2024-01-30T13:48:23;9.80;99.90
29713;DHT22;16623;53.632;10.016;2024-01-30T13:50:48;9.70;99.90
29713;DHT22;16623;53.632;10.016;2024-01-30T13:53:14;9.80;99.90
29713;DHT22;16623;53.632;10.016;2024-01-30T13:55:39;9.80;99.90
29713;DHT22;16623;53.632;10.016;2024-01-30T13:58:06;9.80;99.90
29713;DHT22;16623;53.632;10.016;2024-01-30T14:00:31;9.70;99.90
29713;DHT22;16623;53.632;10.016;2024-01-30T14:02:57;9.80;99.90
29713;DHT22;16623;53.632;10.016;2024-01-30T14:05:24;9.80;99.90
29713;DHT22;16623;53.632;10.016;2024-01-30T14:07:51;9.80;99.90
29713;DHT22;16623;53.632;10.016;2024-01-30T14:10:17;9.80;99.90
29713;DHT22;16623;53.632;10.016;2024-01-30T14:12:43;9.80;99.90
29713;DHT22;16623;53.632;10.016;2024-01-30T14:15:10;9.90;99.90
29713;DHT22;16623;53.632;10.016;2024-01-30T14:17:36;9.90;99.90
29713;DHT22;16623;53.632;10.016;2024-01-30T14:20:06;10.00;99.90
29713;DHT22;16623;53.632;10.016;2024-01-30T14:22:33;10.00;99.90
29713;DHT22;16623;53.632;10.016;2024-01-30T14:24:59;10.00;99.90
29713;DHT22;16623;53.632;10.016;2024-01-30T14:27:24;10.00;99.90
29713;DHT22;16623;53.632;10.016;2024-01-30T14:29:50;10.00;99.90
29713;DHT22;16623;53.632;10.016;2024-01-30T14:32:16;10.00;99.90
29713;DHT22;16623;53.632;10.016;2024-01-30T14:34:41;10.00;99.90
29713;DHT22;16623;53.632;10.016;2024-01-30T14:37:07;10.10;99.90
29713;DHT22;16623;53.632;10.016;2024-01-30T14:39:33;10.00;99.90
29713;DHT22;16623;53.632;10.016;2024-01-30T14:41:59;10.00;99.90
29713;DHT22;16623;53.632;10.016;2024-01-30T14:44:25;10.10;99.90
29713;DHT22;16623;53.632;10.016;2024-01-30T14:46:50;10.10;99.90
29713;DHT22;16623;53.632;10.016;2024-01-30T14:49:17;10.10;99.90
29713;DHT22;16623;53.632;10.016;2024-01-30T14:51:42;10.10;99.90
29713;DHT22;16623;53.632;10.016;2024-01-30T14:54:08;10.10;99.90
29713;DHT22;16623;53.632;10.016;2024-01-30T14:56:34;10.10;99.90
29713;DHT22;16623;53.632;10.016;2024-01-30T14:59:00;10.10;99.90
29713;DHT22;16623;53.632;10.016;2024-01-30T15:01:26;10.10;99.90
29713;DHT22;16623;53.632;10.016;2024-01-30T15:03:51;10.10;99.90
29713;DHT22;16623;53.632;10.016;2024-01-30T15:06:17;10.20;99.90
29713;DHT22;16623;53.632;10.016;2024-01-30T15:08:43;10.10;99.90
29713;DHT22;16623;53.632;10.016;2024-01-30T15:11:09;10.10;99.90
29713;DHT22;16623;53.632;10.016;2024-01-30T15:13:34;10.20;99.90
29713;DHT22;16623;53.632;10.016;2024-01-30T15:16:00;10.10;99.90
29713;DHT22;16623;53.632;10.016;2024-01-30T15:18:28;10.20;99.90
29713;DHT22;16623;53.632;10.016;2024-01-30T15:20:54;10.20;99.90
29713;DHT22;16623;53.632;10.016;2024-01-30T15:23:20;10.10;99.90
29713;DHT22;16623;53.632;10.016;2024-01-30T15:25:46;10.20;99.90
29713;DHT22;16623;53.632;10.016;2024-01-30T15:28:11;10.10;99.90
29713;DHT22;16623;53.632;10.016;2024-01-30T15:30:38;10.10;99.90
29713;DHT22;16623;53.632;10.016;2024-01-30T15:33:06;10.10;99.90
29713;DHT22;16623;53.632;10.016;2024-01-30T15:35:32;10.10;99.90